sensor_id;sensor_type;location;lat;lon;timestamp;temperature;humidity
2577;DHT22;1298;51.252;6.802;2023-11-21T00:00:43;8.10;99.90
2577;DHT22;1298;51.252;6.802;2023-11-21T00:03:29;8.10;99.90
2577;DHT22;1298;51.252;6.802;2023-11-21T00:06:15;8.10;99.90
2577;DHT22;1298;51.252;6.802;2023-11-21T00:09:02;8.20;99.90
2577;DHT22;1298;51.252;6.802;2023-11-21T00:11:47;8.20;99.90
2577;DHT22;1298;51.252;6.802;2023-11-21T00:14:33;8.30;99.90
2577;DHT22;1298;51.252;6.802;2023-11-21T00:17:18;8.30;99.90
2577;DHT22;1298;51.252;6.802;2023-11-21T00:20:06;8.30;99.90
2577;DHT22;1298;51.252;6.802;2023-11-21T00:22:52;8.30;99.90
2577;DHT22;1298;51.252;6.802;2023-11-21T00:25:39;8.40;99.90
2577;DHT22;1298;51.252;6.802;2023-11-21T00:28:25;8.50;99.90
2577;DHT22;1298;51.252;6.802;2023-11-21T00:31:11;8.50;99.90
2577;DHT22;1298;51.252;6.802;2023-11-21T00:33:56;8.50;99.90
2577;DHT22;1298;51.252;6.802;2023-11-21T00:36:42;8.50;99.90
2577;DHT22;1298;51.252;6.802;2023-11-21T00:39:27;8.60;99.90
2577;DHT22;1298;51.252;6.802;2023-11-21T00:42:14;8.60;99.90
2577;DHT22;1298;51.252;6.802;2023-11-21T00:45:00;8.60;99.90
2577;DHT22;1298;51.252;6.802;2023-11-21T00:47:45;8.60;99.90
2577;DHT22;1298;51.252;6.802;2023-11-21T00:50:31;8.60;99.90
2577;DHT22;1298;51.252;6.802;2023-11-21T00:53:17;8.60;99.90
2577;DHT22;1298;51.252;6.802;2023-11-21T00:56:03;8.60;99.90
2577;DHT22;1298;51.252;6.802;2023-11-21T00:58:50;8.60;99.90
2577;DHT22;1298;51.252;6.802;2023-11-21T01:01:37;8.60;99.90
2577;DHT22;1298;51.252;6.802;2023-11-21T01:04:22;8.70;99.90
2577;DHT22;1298;51.252;6.802;2023-11-21T01:07:08;8.70;99.90
2577;DHT22;1298;51.252;6.802;2023-11-21T01:09:53;8.80;99.90
2577;DHT22;1298;51.252;6.802;2023-11-21T01:12:40;8.70;99.90
2577;DHT22;1298;51.252;6.802;2023-11-21T01:15:27;8.60;99.90
2577;DHT22;1298;51.252;6.802;2023-11-21T01:18:12;8.60;99.90
2577;DHT22;1298;51.252;6.802;2023-11-21T01:20:58;8.50;99.90
2577;DHT22;1298;51.252;6.802;2023-11-21T01:23:44;8.50;99.90
2577;DHT22;1298;51.252;6.802;2023-11-21T01:26:31;8.30;99.90
2577;DHT22;1298;51.252;6.802;2023-11-21T01:29:16;8.20;99.90
2577;DHT22;1298;51.252;6.802;2023-11-21T01:32:04;8.10;99.90
2577;DHT22;1298;51.252;6.802;2023-11-21T01:34:52;8.00;99.90
2577;DHT22;1298;51.252;6.802;2023-11-21T01:37:38;8.00;99.90
2577;DHT22;1298;51.252;6.802;2023-11-21T01:40:23;8.00;99.90
2577;DHT22;1298;51.252;6.802;2023-11-21T01:43:09;8.00;99.90
2577;DHT22;1298;51.252;6.802;2023-11-21T01:45:55;7.90;99.90
2577;DHT22;1298;51.252;6.802;2023-11-21T01:48:43;7.90;99.90
2577;DHT22;1298;51.252;6.802;2023-11-21T01:51:29;7.90;99.90
2577;DHT22;1298;51.252;6.802;2023-11-21T01:54:15;7.90;99.90
2577;DHT22;1298;51.252;6.802;2023-11-21T01:57:02;7.90;99.90
2577;DHT22;1298;51.252;6.802;2023-11-21T01:59:51;8.00;99.90
2577;DHT22;1298;51.252;6.802;2023-11-21T02:02:39;8.10;99.90
2577;DHT22;1298;51.252;6.802;2023-11-21T02:05:26;8.20;99.90
2577;DHT22;1298;51.252;6.802;2023-11-21T02:08:13;8.20;99.90
2577;DHT22;1298;51.252;6.802;2023-11-21T02:10:58;8.30;99.90
2577;DHT22;1298;51.252;6.802;2023-11-21T02:13:44;8.30;99.90
2577;DHT22;1298;51.252;6.802;2023-11-21T02:16:30;8.30;99.90
2577;DHT22;1298;51.252;6.802;2023-11-21T02:19:19;8.30;99.90
2577;DHT22;1298;51.252;6.802;2023-11-21T02:22:08;8.40;99.90
2577;DHT22;1298;51.252;6.802;2023-11-21T02:24:56;8.40;99.90
2577;DHT22;1298;51.252;6.802;2023-11-21T02:27:42;8.30;99.90
2577;DHT22;1298;51.252;6.802;2023-11-21T02:30:28;8.30;99.90
2577;DHT22;1298;51.252;6.802;2023-11-21T02:33:15;8.40;99.90
2577;DHT22;1298;51.252;6.802;2023-11-21T02:36:01;8.30;99.90
2577;DHT22;1298;51.252;6.802;2023-11-21T02:38:47;8.40;99.90
2577;DHT22;1298;51.252;6.802;2023-11-21T02:41:34;8.30;99.90
2577;DHT22;1298;51.252;6.802;2023-11-21T02:44:19;8.40;99.90
2577;DHT22;1298;51.252;6.802;2023-11-21T02:47:05;8.40;99.90
2577;DHT22;1298;51.252;6.802;2023-11-21T02:49:50;8.40;99.90
2577;DHT22;1298;51.252;6.802;2023-11-21T02:52:36;8.40;99.90
2577;DHT22;1298;51.252;6.802;2023-11-21T02:55:23;8.40;99.90
2577;DHT22;1298;51.252;6.802;2023-11-21T02:58:10;8.40;99.90
2577;DHT22;1298;51.252;6.802;2023-11-21T03:00:56;8.40;99.90
2577;DHT22;1298;51.252;6.802;2023-11-21T03:03:41;8.50;99.90
2577;DHT22;1298;51.252;6.802;2023-11-21T03:06:27;8.40;99.90
2577;DHT22;1298;51.252;6.802;2023-11-21T03:09:12;8.40;99.90
2577;DHT22;1298;51.252;6.802;2023-11-21T03:11:58;8.40;99.90
2577;DHT22;1298;51.252;6.802;2023-11-21T03:14:45;8.40;99.90
2577;DHT22;1298;51.252;6.802;2023-11-21T03:17:30;8.50;99.90
2577;DHT22;1298;51.252;6.802;2023-11-21T03:20:17;8.50;99.90
2577;DHT22;1298;51.252;6.802;2023-11-21T03:23:03;8.50;99.90
2577;DHT22;1298;51.252;6.802;2023-11-21T03:25:48;8.50;99.90
2577;DHT22;1298;51.252;6.802;2023-11-21T03:28:34;8.40;99.90
2577;DHT22;1298;51.252;6.802;2023-11-21T03:31:21;8.40;99.90
2577;DHT22;1298;51.252;6.802;2023-11-21T03:34:11;8.40;99.90
2577;DHT22;1298;51.252;6.802;2023-11-21T03:36:57;8.40;99.90
2577;DHT22;1298;51.252;6.802;2023-11-21T03:39:42;8.40;99.90
2577;DHT22;1298;51.252;6.802;2023-11-21T03:42:28;8.50;99.90
2577;DHT22;1298;51.252;6.802;2023-11-21T03:45:13;8.50;99.90
2577;DHT22;1298;51.252;6.802;2023-11-21T03:48:00;8.50;99.90
2577;DHT22;1298;51.252;6.802;2023-11-21T03:50:46;8.50;99.90
2577;DHT22;1298;51.252;6.802;2023-11-21T03:53:32;8.50;99.90
2577;DHT22;1298;51.252;6.802;2023-11-21T03:56:17;8.50;99.90
2577;DHT22;1298;51.252;6.802;2023-11-21T03:59:03;8.60;99.90
2577;DHT22;1298;51.252;6.802;2023-11-21T04:01:49;8.50;99.90
2577;DHT22;1298;51.252;6.802;2023-11-21T04:04:36;8.60;99.90
2577;DHT22;1298;51.252;6.802;2023-11-21T04:07:21;8.60;99.90
2577;DHT22;1298;51.252;6.802;2023-11-21T04:10:08;8.60;99.90
2577;DHT22;1298;51.252;6.802;2023-11-21T04:12:56;8.60;99.90
2577;DHT22;1298;51.252;6.802;2023-11-21T04:15:42;8.60;99.90
2577;DHT22;1298;51.252;6.802;2023-11-21T04:18:27;8.60;99.90
2577;DHT22;1298;51.252;6.802;2023-11-21T04:21:14;8.60;99.90
2577;DHT22;1298;51.252;6.802;2023-11-21T04:24:00;8.60;99.90
2577;DHT22;1298;51.252;6.802;2023-11-21T04:26:46;8.60;99.90
2577;DHT22;1298;51.252;6.802;2023-11-21T04:29:31;8.70;99.90
2577;DHT22;1298;51.252;6.802;2023-11-21T04:32:17;8.60;99.90
2577;DHT22;1298;51.252;6.802;2023-11-21T04:35:03;8.60;99.90
2577;DHT22;1298;51.252;6.802;2023-11-21T04:37:50;8.60;99.90
2577;DHT22;1298;51.252;6.802;2023-11-21T04:40:36;8.60;99.90
2577;DHT22;1298;51.252;6.802;2023-11-21T04:43:22;8.60;99.90
2577;DHT22;1298;51.252;6.802;2023-11-21T04:46:08;8.60;99.90
2577;DHT22;1298;51.252;6.802;2023-11-21T04:48:53;8.60;99.90
2577;DHT22;1298;51.252;6.802;2023-11-21T04:51:40;8.60;99.90
2577;DHT22;1298;51.252;6.802;2023-11-21T04:54:27;8.60;99.90
2577;DHT22;1298;51.252;6.802;2023-11-21T04:57:13;8.60;99.90
2577;DHT22;1298;51.252;6.802;2023-11-21T04:59:58;8.60;99.90
2577;DHT22;1298;51.252;6.802;2023-11-21T05:02:44;8.60;99.90
2577;DHT22;1298;51.252;6.802;2023-11-21T05:05:30;8.60;99.90
2577;DHT22;1298;51.252;6.802;2023-11-21T05:08:16;8.60;99.90
2577;DHT22;1298;51.252;6.802;2023-11-21T05:11:04;8.60;99.90
2577;DHT22;1298;51.252;6.802;2023-11-21T05:13:51;8.60;99.90
2577;DHT22;1298;51.252;6.802;2023-11-21T05:16:37;8.60;99.90
2577;DHT22;1298;51.252;6.802;2023-11-21T05:19:22;8.60;99.90
2577;DHT22;1298;51.252;6.802;2023-11-21T05:22:08;8.60;99.90
2577;DHT22;1298;51.252;6.802;2023-11-21T05:24:56;8.70;99.90
2577;DHT22;1298;51.252;6.802;2023-11-21T05:27:45;8.70;99.90
2577;DHT22;1298;51.252;6.802;2023-11-21T05:30:30;8.70;99.90
2577;DHT22;1298;51.252;6.802;2023-11-21T05:33:16;8.70;99.90
2577;DHT22;1298;51.252;6.802;2023-11-21T05:36:02;8.70;99.90
2577;DHT22;1298;51.252;6.802;2023-11-21T05:38:48;8.70;99.90
2577;DHT22;1298;51.252;6.802;2023-11-21T05:41:35;8.80;99.90
2577;DHT22;1298;51.252;6.802;2023-11-21T05:44:22;8.80;99.90
2577;DHT22;1298;51.252;6.802;2023-11-21T05:47:07;8.80;99.90
2577;DHT22;1298;51.252;6.802;2023-11-21T05:49:54;8.90;99.90
2577;DHT22;1298;51.252;6.802;2023-11-21T05:52:39;8.90;99.90
2577;DHT22;1298;51.252;6.802;2023-11-21T05:55:25;8.80;99.90
2577;DHT22;1298;51.252;6.802;2023-11-21T05:58:11;8.80;99.90
2577;DHT22;1298;51.252;6.802;2023-11-21T06:00:59;8.80;99.90
2577;DHT22;1298;51.252;6.802;2023-11-21T06:03:44;8.90;99.90
2577;DHT22;1298;51.252;6.802;2023-11-21T06:06:30;8.90;99.90
2577;DHT22;1298;51.252;6.802;2023-11-21T06:09:15;8.90;99.90
2577;DHT22;1298;51.252;6.802;2023-11-21T06:12:02;8.90;99.90
2577;DHT22;1298;51.252;6.802;2023-11-21T06:14:48;8.90;99.90
2577;DHT22;1298;51.252;6.802;2023-11-21T06:17:34;8.90;99.90
2577;DHT22;1298;51.252;6.802;2023-11-21T06:20:21;8.80;99.90
2577;DHT22;1298;51.252;6.802;2023-11-21T06:23:07;8.80;99.90
2577;DHT22;1298;51.252;6.802;2023-11-21T06:25:53;8.80;99.90
2577;DHT22;1298;51.252;6.802;2023-11-21T06:28:38;8.80;99.90
2577;DHT22;1298;51.252;6.802;2023-11-21T06:31:24;8.80;99.90
2577;DHT22;1298;51.252;6.802;2023-11-21T06:34:11;8.80;99.90
2577;DHT22;1298;51.252;6.802;2023-11-21T06:36:56;8.80;99.90
2577;DHT22;1298;51.252;6.802;2023-11-21T06:39:42;8.80;99.90
2577;DHT22;1298;51.252;6.802;2023-11-21T06:42:28;8.80;99.90
2577;DHT22;1298;51.252;6.802;2023-11-21T06:45:15;8.70;99.90
2577;DHT22;1298;51.252;6.802;2023-11-21T06:48:01;8.70;99.90
2577;DHT22;1298;51.252;6.802;2023-11-21T06:50:48;8.70;99.90
2577;DHT22;1298;51.252;6.802;2023-11-21T06:53:33;8.60;99.90
2577;DHT22;1298;51.252;6.802;2023-11-21T06:56:19;8.60;99.90
2577;DHT22;1298;51.252;6.802;2023-11-21T06:59:04;8.60;99.90
2577;DHT22;1298;51.252;6.802;2023-11-21T07:01:50;8.60;99.90
2577;DHT22;1298;51.252;6.802;2023-11-21T07:04:36;8.60;99.90
2577;DHT22;1298;51.252;6.802;2023-11-21T07:07:23;8.60;99.90
2577;DHT22;1298;51.252;6.802;2023-11-21T07:10:09;8.60;99.90
2577;DHT22;1298;51.252;6.802;2023-11-21T07:12:55;8.60;99.90
2577;DHT22;1298;51.252;6.802;2023-11-21T07:15:41;8.60;99.90
2577;DHT22;1298;51.252;6.802;2023-11-21T07:18:27;8.60;99.90
2577;DHT22;1298;51.252;6.802;2023-11-21T07:21:13;8.50;99.90
2577;DHT22;1298;51.252;6.802;2023-11-21T07:24:03;8.50;99.90
2577;DHT22;1298;51.252;6.802;2023-11-21T07:26:49;8.50;99.90
2577;DHT22;1298;51.252;6.802;2023-11-21T07:29:34;8.50;99.90
2577;DHT22;1298;51.252;6.802;2023-11-21T07:32:20;8.50;99.90
2577;DHT22;1298;51.252;6.802;2023-11-21T07:35:06;8.50;99.90
2577;DHT22;1298;51.252;6.802;2023-11-21T07:37:52;8.50;99.90
2577;DHT22;1298;51.252;6.802;2023-11-21T07:40:39;8.60;99.90
2577;DHT22;1298;51.252;6.802;2023-11-21T07:43:25;8.70;99.90
2577;DHT22;1298;51.252;6.802;2023-11-21T07:46:10;8.70;99.90
2577;DHT22;1298;51.252;6.802;2023-11-21T07:48:56;8.70;99.90
2577;DHT22;1298;51.252;6.802;2023-11-21T07:51:42;8.70;99.90
2577;DHT22;1298;51.252;6.802;2023-11-21T07:54:28;8.70;99.90
2577;DHT22;1298;51.252;6.802;2023-11-21T07:57:15;8.70;99.90
2577;DHT22;1298;51.252;6.802;2023-11-21T08:00:00;8.70;99.90
2577;DHT22;1298;51.252;6.802;2023-11-21T08:02:49;8.70;99.90
2577;DHT22;1298;51.252;6.802;2023-11-21T08:05:35;8.60;99.90
2577;DHT22;1298;51.252;6.802;2023-11-21T08:08:20;8.70;99.90
2577;DHT22;1298;51.252;6.802;2023-11-21T08:11:06;8.70;99.90
2577;DHT22;1298;51.252;6.802;2023-11-21T08:13:54;8.70;99.90
2577;DHT22;1298;51.252;6.802;2023-11-21T08:16:39;8.70;99.90
2577;DHT22;1298;51.252;6.802;2023-11-21T08:19:25;8.70;99.90
2577;DHT22;1298;51.252;6.802;2023-11-21T08:22:12;8.80;99.90
2577;DHT22;1298;51.252;6.802;2023-11-21T08:24:58;8.90;99.90
2577;DHT22;1298;51.252;6.802;2023-11-21T08:27:44;9.00;99.90
2577;DHT22;1298;51.252;6.802;2023-11-21T08:30:31;8.90;99.90
2577;DHT22;1298;51.252;6.802;2023-11-21T08:33:16;9.00;99.90
2577;DHT22;1298;51.252;6.802;2023-11-21T08:36:07;8.90;99.90
2577;DHT22;1298;51.252;6.802;2023-11-21T08:38:52;8.80;99.90
2577;DHT22;1298;51.252;6.802;2023-11-21T08:41:39;8.90;99.90
2577;DHT22;1298;51.252;6.802;2023-11-21T08:44:25;9.00;99.90
2577;DHT22;1298;51.252;6.802;2023-11-21T08:47:12;9.00;99.90
2577;DHT22;1298;51.252;6.802;2023-11-21T08:49:58;9.00;99.90
2577;DHT22;1298;51.252;6.802;2023-11-21T08:52:44;9.00;99.90
2577;DHT22;1298;51.252;6.802;2023-11-21T08:55:31;9.10;99.90
2577;DHT22;1298;51.252;6.802;2023-11-21T08:58:21;9.10;99.90
2577;DHT22;1298;51.252;6.802;2023-11-21T09:01:06;9.00;99.90
2577;DHT22;1298;51.252;6.802;2023-11-21T09:03:53;9.00;99.90
2577;DHT22;1298;51.252;6.802;2023-11-21T09:06:39;9.20;99.90
2577;DHT22;1298;51.252;6.802;2023-11-21T09:09:25;9.30;99.90
2577;DHT22;1298;51.252;6.802;2023-11-21T09:12:10;9.30;99.90
2577;DHT22;1298;51.252;6.802;2023-11-21T09:14:56;9.30;99.90
2577;DHT22;1298;51.252;6.802;2023-11-21T09:17:42;9.30;99.90
2577;DHT22;1298;51.252;6.802;2023-11-21T09:20:30;9.40;99.90
2577;DHT22;1298;51.252;6.802;2023-11-21T09:23:15;9.40;99.90
2577;DHT22;1298;51.252;6.802;2023-11-21T09:26:01;9.50;99.90
2577;DHT22;1298;51.252;6.802;2023-11-21T09:28:47;9.50;99.90
2577;DHT22;1298;51.252;6.802;2023-11-21T09:31:33;9.50;99.90
2577;DHT22;1298;51.252;6.802;2023-11-21T09:34:19;9.60;99.90
2577;DHT22;1298;51.252;6.802;2023-11-21T09:37:06;9.50;99.90
2577;DHT22;1298;51.252;6.802;2023-11-21T09:39:52;9.50;99.90
2577;DHT22;1298;51.252;6.802;2023-11-21T09:42:39;9.60;99.90
2577;DHT22;1298;51.252;6.802;2023-11-21T09:45:27;9.50;99.90
2577;DHT22;1298;51.252;6.802;2023-11-21T09:48:15;9.60;99.90
2577;DHT22;1298;51.252;6.802;2023-11-21T09:51:02;9.60;99.90
2577;DHT22;1298;51.252;6.802;2023-11-21T09:53:50;9.50;99.90
2577;DHT22;1298;51.252;6.802;2023-11-21T09:56:37;9.50;99.90
2577;DHT22;1298;51.252;6.802;2023-11-21T09:59:22;9.50;99.90
2577;DHT22;1298;51.252;6.802;2023-11-21T10:02:08;9.50;99.90
2577;DHT22;1298;51.252;6.802;2023-11-21T10:04:56;9.60;99.90
2577;DHT22;1298;51.252;6.802;2023-11-21T10:07:43;9.60;99.90
2577;DHT22;1298;51.252;6.802;2023-11-21T10:10:32;9.60;99.90
2577;DHT22;1298;51.252;6.802;2023-11-21T10:13:18;9.70;99.90
2577;DHT22;1298;51.252;6.802;2023-11-21T10:16:04;9.70;99.90
2577;DHT22;1298;51.252;6.802;2023-11-21T10:18:53;9.70;99.90
2577;DHT22;1298;51.252;6.802;2023-11-21T10:21:39;9.80;99.90
2577;DHT22;1298;51.252;6.802;2023-11-21T10:24:24;9.80;99.90
2577;DHT22;1298;51.252;6.802;2023-11-21T10:27:11;9.80;99.90
2577;DHT22;1298;51.252;6.802;2023-11-21T10:29:57;9.80;99.90
2577;DHT22;1298;51.252;6.802;2023-11-21T10:32:43;9.90;99.90
2577;DHT22;1298;51.252;6.802;2023-11-21T10:35:39;9.80;99.90
2577;DHT22;1298;51.252;6.802;2023-11-21T10:38:25;9.70;99.90
2577;DHT22;1298;51.252;6.802;2023-11-21T10:41:12;9.80;99.90
2577;DHT22;1298;51.252;6.802;2023-11-21T10:44:01;9.80;99.90
2577;DHT22;1298;51.252;6.802;2023-11-21T10:46:48;9.70;99.90
2577;DHT22;1298;51.252;6.802;2023-11-21T10:49:37;9.80;99.90
2577;DHT22;1298;51.252;6.802;2023-11-21T10:52:27;9.80;99.90
2577;DHT22;1298;51.252;6.802;2023-11-21T10:55:18;9.90;99.90
2577;DHT22;1298;51.252;6.802;2023-11-21T10:58:05;9.90;99.90
2577;DHT22;1298;51.252;6.802;2023-11-21T11:00:52;10.00;99.90
2577;DHT22;1298;51.252;6.802;2023-11-21T11:03:38;10.10;99.90
2577;DHT22;1298;51.252;6.802;2023-11-21T11:06:24;10.20;99.90
2577;DHT22;1298;51.252;6.802;2023-11-21T11:09:13;10.10;99.90
2577;DHT22;1298;51.252;6.802;2023-11-21T11:12:01;10.00;99.90
2577;DHT22;1298;51.252;6.802;2023-11-21T11:14:48;9.90;99.90
2577;DHT22;1298;51.252;6.802;2023-11-21T11:17:37;9.90;99.90
2577;DHT22;1298;51.252;6.802;2023-11-21T11:20:27;9.90;99.90
2577;DHT22;1298;51.252;6.802;2023-11-21T11:23:32;9.80;99.90
2577;DHT22;1298;51.252;6.802;2023-11-21T11:26:26;10.00;99.90
2577;DHT22;1298;51.252;6.802;2023-11-21T11:29:24;10.00;99.90
2577;DHT22;1298;51.252;6.802;2023-11-21T11:32:20;10.00;99.90
2577;DHT22;1298;51.252;6.802;2023-11-21T11:35:13;10.10;99.90
2577;DHT22;1298;51.252;6.802;2023-11-21T11:38:03;10.10;99.90
2577;DHT22;1298;51.252;6.802;2023-11-21T11:40:53;10.20;99.90
2577;DHT22;1298;51.252;6.802;2023-11-21T11:43:38;10.30;99.90
2577;DHT22;1298;51.252;6.802;2023-11-21T11:46:44;10.30;99.90
2577;DHT22;1298;51.252;6.802;2023-11-21T11:49:30;10.40;99.90
2577;DHT22;1298;51.252;6.802;2023-11-21T11:52:40;10.50;99.90
2577;DHT22;1298;51.252;6.802;2023-11-21T11:55:25;10.60;99.90
2577;DHT22;1298;51.252;6.802;2023-11-21T11:58:15;10.80;99.90
2577;DHT22;1298;51.252;6.802;2023-11-21T12:01:06;11.00;99.90
2577;DHT22;1298;51.252;6.802;2023-11-21T12:04:23;11.40;99.90
2577;DHT22;1298;51.252;6.802;2023-11-21T12:07:15;11.50;99.90
2577;DHT22;1298;51.252;6.802;2023-11-21T12:10:03;11.50;99.90
2577;DHT22;1298;51.252;6.802;2023-11-21T12:12:50;11.40;99.90
2577;DHT22;1298;51.252;6.802;2023-11-21T12:15:36;11.40;99.90
2577;DHT22;1298;51.252;6.802;2023-11-21T12:18:23;11.30;99.90
2577;DHT22;1298;51.252;6.802;2023-11-21T12:21:10;11.20;99.90
2577;DHT22;1298;51.252;6.802;2023-11-21T12:23:56;11.20;99.90
2577;DHT22;1298;51.252;6.802;2023-11-21T12:26:43;11.10;99.90
2577;DHT22;1298;51.252;6.802;2023-11-21T12:29:29;11.10;99.90
2577;DHT22;1298;51.252;6.802;2023-11-21T12:32:15;11.10;99.90
2577;DHT22;1298;51.252;6.802;2023-11-21T12:35:02;11.10;99.90
2577;DHT22;1298;51.252;6.802;2023-11-21T12:37:51;11.00;99.90
2577;DHT22;1298;51.252;6.802;2023-11-21T12:40:37;11.20;99.90
2577;DHT22;1298;51.252;6.802;2023-11-21T12:43:25;11.30;99.90
2577;DHT22;1298;51.252;6.802;2023-11-21T12:46:11;11.40;99.90
2577;DHT22;1298;51.252;6.802;2023-11-21T12:48:57;11.30;99.90
2577;DHT22;1298;51.252;6.802;2023-11-21T12:51:44;11.30;99.90
2577;DHT22;1298;51.252;6.802;2023-11-21T12:54:30;11.20;99.90
2577;DHT22;1298;51.252;6.802;2023-11-21T12:57:15;11.20;99.90
2577;DHT22;1298;51.252;6.802;2023-11-21T13:00:03;11.20;99.90
2577;DHT22;1298;51.252;6.802;2023-11-21T13:02:55;11.40;99.90
2577;DHT22;1298;51.252;6.802;2023-11-21T13:05:44;11.40;99.90
2577;DHT22;1298;51.252;6.802;2023-11-21T13:08:29;11.20;99.90
2577;DHT22;1298;51.252;6.802;2023-11-21T13:11:17;11.10;99.90
2577;DHT22;1298;51.252;6.802;2023-11-21T13:14:02;11.10;99.90
2577;DHT22;1298;51.252;6.802;2023-11-21T13:16:50;11.20;99.90
2577;DHT22;1298;51.252;6.802;2023-11-21T13:19:35;11.30;99.90
2577;DHT22;1298;51.252;6.802;2023-11-21T13:22:21;11.20;99.90
2577;DHT22;1298;51.252;6.802;2023-11-21T13:25:09;11.20;99.90
2577;DHT22;1298;51.252;6.802;2023-11-21T13:27:55;11.20;99.90
2577;DHT22;1298;51.252;6.802;2023-11-21T13:30:40;11.20;99.90
2577;DHT22;1298;51.252;6.802;2023-11-21T13:33:27;11.30;99.90
2577;DHT22;1298;51.252;6.802;2023-11-21T13:36:12;11.40;99.90
2577;DHT22;1298;51.252;6.802;2023-11-21T13:39:00;11.30;99.90
2577;DHT22;1298;51.252;6.802;2023-11-21T13:41:51;11.10;99.90
2577;DHT22;1298;51.252;6.802;2023-11-21T13:44:39;11.10;99.90
2577;DHT22;1298;51.252;6.802;2023-11-21T13:47:28;11.10;99.90
2577;DHT22;1298;51.252;6.802;2023-11-21T13:50:16;10.90;99.90
2577;DHT22;1298;51.252;6.802;2023-11-21T13:53:06;10.80;99.90
2577;DHT22;1298;51.252;6.802;2023-11-21T13:56:02;10.80;99.90
2577;DHT22;1298;51.252;6.802;2023-11-21T13:58:47;10.90;99.90
2577;DHT22;1298;51.252;6.802;2023-11-21T14:01:35;10.90;99.90
2577;DHT22;1298;51.252;6.802;2023-11-21T14:04:38;10.80;99.90
2577;DHT22;1298;51.252;6.802;2023-11-21T14:07:40;10.80;99.90
2577;DHT22;1298;51.252;6.802;2023-11-21T14:10:32;10.80;99.90
2577;DHT22;1298;51.252;6.802;2023-11-21T14:13:24;10.90;99.90
2577;DHT22;1298;51.252;6.802;2023-11-21T14:16:09;10.80;99.90
2577;DHT22;1298;51.252;6.802;2023-11-21T14:18:56;10.70;99.90
2577;DHT22;1298;51.252;6.802;2023-11-21T14:21:48;10.60;99.90
2577;DHT22;1298;51.252;6.802;2023-11-21T14:24:35;10.60;99.90
2577;DHT22;1298;51.252;6.802;2023-11-21T14:27:21;10.50;99.90
2577;DHT22;1298;51.252;6.802;2023-11-21T14:30:07;10.50;99.90
2577;DHT22;1298;51.252;6.802;2023-11-21T14:32:57;10.50;99.90
2577;DHT22;1298;51.252;6.802;2023-11-21T14:35:42;10.50;99.90
2577;DHT22;1298;51.252;6.802;2023-11-21T14:38:28;10.50;99.90
2577;DHT22;1298;51.252;6.802;2023-11-21T14:41:15;10.60;99.90
2577;DHT22;1298;51.252;6.802;2023-11-21T14:44:01;10.60;99.90
2577;DHT22;1298;51.252;6.802;2023-11-21T14:46:48;10.60;99.90
2577;DHT22;1298;51.252;6.802;2023-11-21T14:49:34;10.50;99.90
2577;DHT22;1298;51.252;6.802;2023-11-21T14:52:34;10.50;99.90
2577;DHT22;1298;51.252;6.802;2023-11-21T14:55:21;10.50;99.90
2577;DHT22;1298;51.252;6.802;2023-11-21T14:58:17;10.50;99.90
2577;DHT22;1298;51.252;6.802;2023-11-21T15:01:10;10.50;99.90
2577;DHT22;1298;51.252;6.802;2023-11-21T15:03:55;10.50;99.90
2577;DHT22;1298;51.252;6.802;2023-11-21T15:06:41;10.40;99.90
2577;DHT22;1298;51.252;6.802;2023-11-21T15:09:26;10.40;99.90
2577;DHT22;1298;51.252;6.802;2023-11-21T15:12:23;10.40;99.90
2577;DHT22;1298;51.252;6.802;2023-11-21T15:15:13;10.40;99.90
2577;DHT22;1298;51.252;6.802;2023-11-21T15:17:58;10.30;99.90
2577;DHT22;1298;51.252;6.802;2023-11-21T15:20:44;10.20;99.90
2577;DHT22;1298;51.252;6.802;2023-11-21T15:23:29;10.20;99.90
2577;DHT22;1298;51.252;6.802;2023-11-21T15:26:19;10.20;99.90
2577;DHT22;1298;51.252;6.802;2023-11-21T15:29:06;10.20;99.90
2577;DHT22;1298;51.252;6.802;2023-11-21T15:31:53;10.20;99.90
2577;DHT22;1298;51.252;6.802;2023-11-21T15:34:40;10.20;99.90
2577;DHT22;1298;51.252;6.802;2023-11-21T15:37:26;10.20;99.90
2577;DHT22;1298;51.252;6.802;2023-11-21T15:40:13;10.30;99.90
2577;DHT22;1298;51.252;6.802;2023-11-21T15:43:00;10.20;99.90
2577;DHT22;1298;51.252;6.802;2023-11-21T15:45:47;10.20;99.90
2577;DHT22;1298;51.252;6.802;2023-11-21T15:48:34;10.30;99.90
2577;DHT22;1298;51.252;6.802;2023-11-21T15:51:20;10.30;99.90
2577;DHT22;1298;51.252;6.802;2023-11-21T15:54:06;10.20;99.90
2577;DHT22;1298;51.252;6.802;2023-11-21T15:56:53;10.20;99.90
2577;DHT22;1298;51.252;6.802;2023-11-21T15:59:41;10.10;99.90
2577;DHT22;1298;51.252;6.802;2023-11-21T16:02:27;10.10;99.90
2577;DHT22;1298;51.252;6.802;2023-11-21T16:05:16;10.10;99.90
2577;DHT22;1298;51.252;6.802;2023-11-21T16:08:02;10.10;99.90
2577;DHT22;1298;51.252;6.802;2023-11-21T16:10:47;10.00;99.90
2577;DHT22;1298;51.252;6.802;2023-11-21T16:13:33;10.00;99.90
2577;DHT22;1298;51.252;6.802;2023-11-21T16:16:22;10.00;99.90
2577;DHT22;1298;51.252;6.802;2023-11-21T16:19:08;9.90;99.90
2577;DHT22;1298;51.252;6.802;2023-11-21T16:21:55;9.90;99.90
2577;DHT22;1298;51.252;6.802;2023-11-21T16:24:40;9.80;99.90
2577;DHT22;1298;51.252;6.802;2023-11-21T16:27:26;9.70;99.90
2577;DHT22;1298;51.252;6.802;2023-11-21T16:30:12;9.70;99.90
2577;DHT22;1298;51.252;6.802;2023-11-21T16:32:58;9.70;99.90
2577;DHT22;1298;51.252;6.802;2023-11-21T16:35:43;9.60;99.90
2577;DHT22;1298;51.252;6.802;2023-11-21T16:38:32;9.60;99.90
2577;DHT22;1298;51.252;6.802;2023-11-21T16:41:18;9.50;99.90
2577;DHT22;1298;51.252;6.802;2023-11-21T16:44:04;9.50;99.90
2577;DHT22;1298;51.252;6.802;2023-11-21T16:46:50;9.50;99.90
2577;DHT22;1298;51.252;6.802;2023-11-21T16:49:37;9.50;99.90
2577;DHT22;1298;51.252;6.802;2023-11-21T16:52:24;9.50;99.90
2577;DHT22;1298;51.252;6.802;2023-11-21T16:55:11;9.40;99.90
2577;DHT22;1298;51.252;6.802;2023-11-21T16:57:57;9.50;99.90
2577;DHT22;1298;51.252;6.802;2023-11-21T17:00:43;9.40;99.90
2577;DHT22;1298;51.252;6.802;2023-11-21T17:03:31;9.40;99.90
2577;DHT22;1298;51.252;6.802;2023-11-21T17:06:16;9.30;99.90
2577;DHT22;1298;51.252;6.802;2023-11-21T17:09:03;9.30;99.90
2577;DHT22;1298;51.252;6.802;2023-11-21T17:11:55;9.20;99.90
2577;DHT22;1298;51.252;6.802;2023-11-21T17:14:41;9.20;99.90
2577;DHT22;1298;51.252;6.802;2023-11-21T17:17:27;9.20;99.90
2577;DHT22;1298;51.252;6.802;2023-11-21T17:20:12;9.00;99.90
2577;DHT22;1298;51.252;6.802;2023-11-21T17:22:59;8.90;99.90
2577;DHT22;1298;51.252;6.802;2023-11-21T17:25:47;8.90;99.90
2577;DHT22;1298;51.252;6.802;2023-11-21T17:28:34;8.80;99.90
2577;DHT22;1298;51.252;6.802;2023-11-21T17:31:19;8.80;99.90
2577;DHT22;1298;51.252;6.802;2023-11-21T17:34:05;8.70;99.90
2577;DHT22;1298;51.252;6.802;2023-11-21T17:36:50;8.60;99.90
2577;DHT22;1298;51.252;6.802;2023-11-21T17:39:36;8.60;99.90
2577;DHT22;1298;51.252;6.802;2023-11-21T17:42:23;8.50;99.90
2577;DHT22;1298;51.252;6.802;2023-11-21T17:45:11;8.50;99.90
2577;DHT22;1298;51.252;6.802;2023-11-21T17:47:56;8.40;99.90
2577;DHT22;1298;51.252;6.802;2023-11-21T17:50:42;8.40;99.90
2577;DHT22;1298;51.252;6.802;2023-11-21T17:53:27;8.30;99.90
2577;DHT22;1298;51.252;6.802;2023-11-21T17:56:13;8.30;99.90
2577;DHT22;1298;51.252;6.802;2023-11-21T17:58:59;8.20;99.90
2577;DHT22;1298;51.252;6.802;2023-11-21T18:01:46;8.20;99.90
2577;DHT22;1298;51.252;6.802;2023-11-21T18:04:31;8.10;99.90
2577;DHT22;1298;51.252;6.802;2023-11-21T18:07:18;8.10;99.90
2577;DHT22;1298;51.252;6.802;2023-11-21T18:10:05;8.00;99.90
2577;DHT22;1298;51.252;6.802;2023-11-21T18:12:51;8.00;99.90
2577;DHT22;1298;51.252;6.802;2023-11-21T18:15:37;8.00;99.90
2577;DHT22;1298;51.252;6.802;2023-11-21T18:18:25;8.00;99.90
2577;DHT22;1298;51.252;6.802;2023-11-21T18:21:11;7.90;99.90
2577;DHT22;1298;51.252;6.802;2023-11-21T18:23:56;7.90;99.90